Terminal Aerodrome Forecast
Issued by NWS

Home | Current Version | Previous Version | Graphics & Text | Print | Product List | Glossary On
Versions: 1 2 3 4 5 6 7 8 9 10 11 12 13 14
000
FTUS43 KMPX 251732
TAFRWF
TAF
KRWF 251732Z 2518/2618 30024G34KT P6SM BKN025
     FM252100 31022G30KT P6SM SCT040
     FM260100 31015G23KT P6SM SKC
     FM260600 31011KT P6SM SKC
     FM261500 32011G16KT P6SM FEW100=

USA.gov is the U.S. government's official web portal to all federal, state and local government web resources and services.